Time;durP1;ratioP1;P1;durP2;ratioP2;P2;SDS_P1;SDS_P2;PMS_P1;PMS_P2;Temp;Humidity;BMP_temperature;BMP_pressure;BME280_temperature;BME280_humidity;BME280_pressure;Samples;Min_cycle;Max_cycle;Signal;HPM_P1;HPM_P2
2021/12/23 00:00:46;;;;;;;30.33;17.90;;;;;;;;;;5114861;28;20938;-77
2021/12/23 00:03:15;;;;;;;30.40;18.43;;;;;;;;;;5114783;28;20448;-77
2021/12/23 00:05:42;;;;;;;22.10;15.37;;;;;;;;;;5114790;28;20556;-77
2021/12/23 00:08:10;;;;;;;21.40;14.07;;;;;;;;;;5114960;28;20498;-77
2021/12/23 00:10:37;;;;;;;17.13;13.03;;;;;;;;;;5114674;28;20529;-77
2021/12/23 00:13:05;;;;;;;16.57;11.53;;;;;;;;;;5114495;28;20524;-77
2021/12/23 00:15:38;;;;;;;20.67;13.20;;;;;;;;;;5114532;28;20437;-77
2021/12/23 00:18:18;;;;;;;13.53;10.77;;;;;;;;;;5114329;27;20521;-77
2021/12/23 00:23:31;;;;;;;30.13;21.83;;;;;;;;;;5114632;28;20406;-77
2021/12/23 00:26:01;;;;;;;23.07;16.07;;;;;;;;;;5094319;28;21009;-77
2021/12/23 00:28:29;;;;;;;21.60;14.27;;;;;;;;;;5094009;28;20499;-77
2021/12/23 00:30:59;;;;;;;18.67;13.17;;;;;;;;;;5093884;28;20525;-77
2021/12/23 00:33:26;;;;;;;18.47;12.53;;;;;;;;;;5093699;28;20474;-76
2021/12/23 00:35:55;;;;;;;16.17;13.33;;;;;;;;;;5093849;28;20484;-76
2021/12/23 00:38:28;;;;;;;14.93;11.50;;;;;;;;;;5093590;28;20442;-77
2021/12/23 00:40:55;;;;;;;15.20;10.60;;;;;;;;;;5093862;28;20870;-77
2021/12/23 00:43:23;;;;;;;14.10;9.53;;;;;;;;;;5099393;28;20449;-76
2021/12/23 00:45:50;;;;;;;12.33;8.33;;;;;;;;;;5113545;28;20897;-77
2021/12/23 00:48:18;;;;;;;10.23;7.53;;;;;;;;;;5114245;28;20991;-77
2021/12/23 00:50:46;;;;;;;9.30;7.40;;;;;;;;;;5113810;28;20531;-77
2021/12/23 00:53:18;;;;;;;9.57;6.67;;;;;;;;;;5113833;28;20481;-77
2021/12/23 00:55:47;;;;;;;11.93;7.30;;;;;;;;;;5113762;28;20470;-77
2021/12/23 00:58:14;;;;;;;11.63;5.93;;;;;;;;;;5113730;28;20439;-77
2021/12/23 01:00:42;;;;;;;8.53;6.40;;;;;;;;;;5113677;27;20443;-76
2021/12/23 01:03:11;;;;;;;12.67;5.67;;;;;;;;;;5113955;28;20566;-77
2021/12/23 01:05:38;;;;;;;7.00;6.03;;;;;;;;;;5113873;28;20481;-77
2021/12/23 01:08:06;;;;;;;7.63;6.83;;;;;;;;;;5113532;28;20448;-77
2021/12/23 01:10:34;;;;;;;9.67;7.37;;;;;;;;;;5113657;28;20485;-76
2021/12/23 01:13:04;;;;;;;9.00;6.40;;;;;;;;;;5113439;28;20821;-77
2021/12/23 01:18:21;;;;;;;5.40;4.90;;;;;;;;;;5113519;28;20482;-77
2021/12/23 01:20:53;;;;;;;4.83;4.33;;;;;;;;;;5113310;28;20432;-77
2021/12/23 01:23:22;;;;;;;8.03;6.43;;;;;;;;;;5113579;28;20436;-77
2021/12/23 01:25:52;;;;;;;5.60;5.07;;;;;;;;;;5097654;28;20496;-77
2021/12/23 01:28:20;;;;;;;7.80;6.67;;;;;;;;;;5093093;28;20800;-77
2021/12/23 01:30:47;;;;;;;8.07;6.20;;;;;;;;;;5092651;28;20485;-77
2021/12/23 01:33:15;;;;;;;7.57;6.03;;;;;;;;;;5092582;28;20966;-77
2021/12/23 01:35:44;;;;;;;6.83;5.03;;;;;;;;;;5092742;28;20529;-77
2021/12/23 01:38:12;;;;;;;8.17;5.60;;;;;;;;;;5092583;28;20442;-77
2021/12/23 01:40:39;;;;;;;6.53;5.33;;;;;;;;;;5092975;28;20923;-77
2021/12/23 01:43:08;;;;;;;7.97;5.27;;;;;;;;;;5092390;28;20482;-76
2021/12/23 01:45:35;;;;;;;9.93;5.83;;;;;;;;;;5092442;28;20477;-77
2021/12/23 01:48:03;;;;;;;4.73;4.07;;;;;;;;;;5092699;28;20814;-77
2021/12/23 01:50:31;;;;;;;5.70;4.67;;;;;;;;;;5092666;28;20529;-76
2021/12/23 01:53:00;;;;;;;5.10;4.47;;;;;;;;;;5092265;28;20434;-77
2021/12/23 01:55:28;;;;;;;5.60;4.43;;;;;;;;;;5092401;28;20441;-76
2021/12/23 01:57:56;;;;;;;4.90;4.27;;;;;;;;;;5091092;28;20533;-77
2021/12/23 02:00:29;;;;;;;6.80;4.03;;;;;;;;;;5092285;28;20434;-77
2021/12/23 02:02:56;;;;;;;5.70;4.40;;;;;;;;;;5092239;28;20435;-77
2021/12/23 02:05:24;;;;;;;6.20;4.60;;;;;;;;;;5092117;28;21032;-77
2021/12/23 02:07:51;;;;;;;4.77;4.30;;;;;;;;;;5106881;28;20844;-77
2021/12/23 02:10:19;;;;;;;5.10;4.23;;;;;;;;;;5112299;28;20563;-77
2021/12/23 02:12:48;;;;;;;4.97;3.93;;;;;;;;;;5112532;27;20442;-77
2021/12/23 02:15:17;;;;;;;4.00;3.47;;;;;;;;;;5112766;28;20528;-77
2021/12/23 02:17:46;;;;;;;5.87;4.73;;;;;;;;;;5112345;28;20999;-77
2021/12/23 02:20:16;;;;;;;5.03;4.23;;;;;;;;;;5112422;28;20449;-77
2021/12/23 02:22:45;;;;;;;6.23;4.40;;;;;;;;;;5112805;28;20464;-77
2021/12/23 02:25:13;;;;;;;6.33;4.73;;;;;;;;;;5112438;28;21088;-77
2021/12/23 02:27:42;;;;;;;6.13;4.20;;;;;;;;;;5112849;28;20476;-76
2021/12/23 02:30:12;;;;;;;4.73;4.17;;;;;;;;;;5112313;28;21003;-77
2021/12/23 02:32:40;;;;;;;5.70;4.70;;;;;;;;;;5112274;28;20520;-77
2021/12/23 02:35:12;;;;;;;5.30;4.17;;;;;;;;;;5112193;28;20945;-77
2021/12/23 02:37:41;;;;;;;8.37;5.93;;;;;;;;;;5112214;28;20491;-77
2021/12/23 02:40:10;;;;;;;30.30;15.90;;;;;;;;;;5112581;28;20515;-77
2021/12/23 02:42:38;;;;;;;32.67;17.63;;;;;;;;;;5112090;28;20437;-77
2021/12/23 02:45:09;;;;;;;27.80;16.33;;;;;;;;;;5112075;28;20535;-77
2021/12/23 02:47:38;;;;;;;18.60;10.97;;;;;;;;;;5112099;28;20441;-76
2021/12/23 02:50:07;;;;;;;15.43;8.27;;;;;;;;;;5112102;28;20453;-77
2021/12/23 02:52:36;;;;;;;12.07;6.20;;;;;;;;;;5112017;28;20491;-76
2021/12/23 02:55:06;;;;;;;7.03;5.03;;;;;;;;;;5112404;28;20863;-76
2021/12/23 02:57:34;;;;;;;4.20;3.80;;;;;;;;;;5111990;28;20949;-77
2021/12/23 03:00:02;;;;;;;8.60;5.00;;;;;;;;;;5112133;28;20520;-76
2021/12/23 03:02:29;;;;;;;10.10;6.37;;;;;;;;;;5112010;28;20524;-76
2021/12/23 03:04:56;;;;;;;13.97;9.03;;;;;;;;;;5111815;28;20473;-77
2021/12/23 03:07:23;;;;;;;14.20;9.07;;;;;;;;;;5101589;28;20445;-77
2021/12/23 03:09:51;;;;;;;14.40;9.70;;;;;;;;;;5113138;28;20477;-77
2021/12/23 03:12:19;;;;;;;16.33;10.40;;;;;;;;;;5115536;28;20437;-77
2021/12/23 03:14:47;;;;;;;11.13;7.40;;;;;;;;;;5115640;28;20820;-77
2021/12/23 03:17:14;;;;;;;11.27;7.47;;;;;;;;;;5115415;28;20821;-77
2021/12/23 03:19:41;;;;;;;14.43;8.63;;;;;;;;;;5115852;28;20515;-76
2021/12/23 03:22:08;;;;;;;14.63;9.37;;;;;;;;;;5115400;28;20448;-77
2021/12/23 03:24:36;;;;;;;14.47;8.87;;;;;;;;;;5115676;28;20441;-77
2021/12/23 03:27:03;;;;;;;14.63;8.43;;;;;;;;;;5115329;28;21022;-77
2021/12/23 03:29:32;;;;;;;29.40;14.63;;;;;;;;;;5111293;28;20476;-77
2021/12/23 03:31:59;;;;;;;22.73;13.83;;;;;;;;;;5094591;28;20525;-77
2021/12/23 03:34:26;;;;;;;15.33;10.47;;;;;;;;;;5106737;28;20437;-77
2021/12/23 03:36:54;;;;;;;16.13;9.23;;;;;;;;;;5115158;28;20528;-77
2021/12/23 03:39:21;;;;;;;13.07;8.47;;;;;;;;;;5097110;28;20480;-77
2021/12/23 03:41:49;;;;;;;8.30;7.33;;;;;;;;;;5094631;28;20442;-77
2021/12/23 03:44:16;;;;;;;7.43;4.97;;;;;;;;;;5095198;28;20519;-77
2021/12/23 03:46:45;;;;;;;5.50;4.63;;;;;;;;;;5094525;28;20476;-77
2021/12/23 03:49:12;;;;;;;5.83;4.73;;;;;;;;;;5094598;28;20495;-77
2021/12/23 03:51:40;;;;;;;9.17;5.37;;;;;;;;;;5094495;28;20442;-77
2021/12/23 03:54:07;;;;;;;11.03;5.90;;;;;;;;;;5094742;28;20468;-77
2021/12/23 03:56:34;;;;;;;8.53;6.07;;;;;;;;;;5094516;28;20438;-77
2021/12/23 03:59:02;;;;;;;9.17;6.07;;;;;;;;;;5094453;28;20443;-77
2021/12/23 04:01:30;;;;;;;10.50;6.50;;;;;;;;;;5094414;28;20471;-76
2021/12/23 04:03:59;;;;;;;8.00;4.87;;;;;;;;;;5094193;28;20517;-77
2021/12/23 04:06:27;;;;;;;6.37;4.37;;;;;;;;;;5100495;28;20560;-78
2021/12/23 04:08:55;;;;;;;4.73;4.23;;;;;;;;;;5114534;28;20483;-77
2021/12/23 04:11:23;;;;;;;6.67;4.30;;;;;;;;;;5114595;28;20502;-77
2021/12/23 04:13:52;;;;;;;7.07;4.13;;;;;;;;;;5114946;28;20457;-77
2021/12/23 04:16:20;;;;;;;4.77;3.93;;;;;;;;;;5114593;28;20425;-77
2021/12/23 04:18:50;;;;;;;6.17;4.47;;;;;;;;;;5114788;27;20440;-77
2021/12/23 04:21:19;;;;;;;13.13;9.57;;;;;;;;;;5113676;28;20512;-76
2021/12/23 04:23:46;;;;;;;14.47;9.83;;;;;;;;;;5114588;28;20858;-77
2021/12/23 04:26:17;;;;;;;8.80;6.00;;;;;;;;;;5111773;27;20565;-77
2021/12/23 04:28:48;;;;;;;8.27;4.77;;;;;;;;;;5102462;28;20439;-77
2021/12/23 04:31:17;;;;;;;11.30;6.70;;;;;;;;;;5097170;28;20446;-78
2021/12/23 04:33:45;;;;;;;20.17;11.67;;;;;;;;;;5113024;28;20605;-77
2021/12/23 04:36:12;;;;;;;37.93;21.30;;;;;;;;;;5111955;28;20452;-77
2021/12/23 04:38:42;;;;;;;31.27;19.10;;;;;;;;;;5113057;27;20524;-78
2021/12/23 04:41:09;;;;;;;19.90;12.03;;;;;;;;;;5112955;28;20443;-77
2021/12/23 04:43:37;;;;;;;13.70;8.83;;;;;;;;;;5113328;28;20885;-78
2021/12/23 04:46:04;;;;;;;10.37;7.63;;;;;;;;;;5112810;28;20473;-77
2021/12/23 04:48:32;;;;;;;12.53;8.43;;;;;;;;;;5113087;28;20449;-77
2021/12/23 04:51:00;;;;;;;6.27;4.77;;;;;;;;;;5112728;28;20482;-77
2021/12/23 04:53:28;;;;;;;6.83;4.90;;;;;;;;;;5112366;28;20533;-77
2021/12/23 04:55:57;;;;;;;7.40;4.87;;;;;;;;;;5112651;28;20528;-78
2021/12/23 04:58:24;;;;;;;6.53;4.37;;;;;;;;;;5112675;28;20444;-77
2021/12/23 05:00:52;;;;;;;7.37;5.50;;;;;;;;;;5112535;28;20433;-77
2021/12/23 05:03:20;;;;;;;24.70;14.63;;;;;;;;;;5093430;28;20450;-78
2021/12/23 05:05:48;;;;;;;34.03;20.17;;;;;;;;;;5091649;28;21016;-76
2021/12/23 05:08:16;;;;;;;31.23;17.73;;;;;;;;;;5098947;28;20811;-77
2021/12/23 05:10:43;;;;;;;11.90;8.03;;;;;;;;;;5112139;28;20500;-77
2021/12/23 05:13:12;;;;;;;7.97;6.53;;;;;;;;;;5112405;28;20954;-77
2021/12/23 05:15:40;;;;;;;17.37;11.20;;;;;;;;;;5112274;28;20441;-77
2021/12/23 05:18:08;;;;;;;18.00;11.30;;;;;;;;;;5108361;28;20518;-77
2021/12/23 05:20:35;;;;;;;11.50;7.67;;;;;;;;;;5111855;28;20941;-78
2021/12/23 05:23:03;;;;;;;11.37;7.23;;;;;;;;;;5112110;28;20444;-78
2021/12/23 05:25:30;;;;;;;7.37;5.90;;;;;;;;;;5111700;28;20452;-77
2021/12/23 05:27:58;;;;;;;24.87;16.97;;;;;;;;;;5111794;28;20437;-77
2021/12/23 05:30:27;;;;;;;25.17;19.20;;;;;;;;;;5111770;28;20916;-77
2021/12/23 05:32:55;;;;;;;26.97;18.10;;;;;;;;;;5112076;28;20457;-77
2021/12/23 05:35:22;;;;;;;23.10;17.40;;;;;;;;;;5113034;28;20963;-77
2021/12/23 05:37:50;;;;;;;37.10;20.73;;;;;;;;;;5113035;28;20446;-77
2021/12/23 05:40:19;;;;;;;51.40;24.97;;;;;;;;;;5113196;28;20477;-77
2021/12/23 05:42:47;;;;;;;40.03;25.87;;;;;;;;;;5112761;28;20974;-77
2021/12/23 05:45:15;;;;;;;28.80;18.63;;;;;;;;;;5112809;28;20506;-77
2021/12/23 05:47:44;;;;;;;19.80;13.60;;;;;;;;;;5112802;28;20480;-77
2021/12/23 05:50:12;;;;;;;14.90;11.10;;;;;;;;;;5112800;28;20449;-77
2021/12/23 05:52:40;;;;;;;10.83;7.43;;;;;;;;;;5112664;28;20445;-77
2021/12/23 05:55:09;;;;;;;9.90;7.93;;;;;;;;;;5101697;28;20962;-77
2021/12/23 05:57:37;;;;;;;8.97;7.03;;;;;;;;;;5103385;28;20438;-77
2021/12/23 06:00:06;;;;;;;9.03;7.77;;;;;;;;;;5104471;28;21016;-77
2021/12/23 06:02:33;;;;;;;15.30;8.30;;;;;;;;;;5101220;28;20445;-77
2021/12/23 06:05:02;;;;;;;12.63;8.03;;;;;;;;;;5103818;28;21096;-77
2021/12/23 06:07:29;;;;;;;11.10;8.77;;;;;;;;;;5102508;28;20548;-77
2021/12/23 06:09:57;;;;;;;9.50;7.30;;;;;;;;;;5104046;28;20879;-77
2021/12/23 06:12:24;;;;;;;11.97;7.83;;;;;;;;;;5103090;28;20437;-77
2021/12/23 06:14:51;;;;;;;8.10;6.20;;;;;;;;;;5105168;28;20512;-78
2021/12/23 06:17:18;;;;;;;9.50;6.60;;;;;;;;;;5103452;28;20977;-77
2021/12/23 06:19:46;;;;;;;10.93;6.67;;;;;;;;;;5102953;28;20444;-78
2021/12/23 06:22:14;;;;;;;9.43;6.43;;;;;;;;;;5091926;28;20434;-79
2021/12/23 06:24:45;;;;;;;8.67;5.77;;;;;;;;;;5092407;28;20472;-78
2021/12/23 06:27:12;;;;;;;10.43;7.40;;;;;;;;;;5109907;28;20993;-77
2021/12/23 06:29:40;;;;;;;9.40;8.03;;;;;;;;;;5112279;28;20448;-78
2021/12/23 06:32:07;;;;;;;9.47;7.47;;;;;;;;;;5109649;28;20518;-77
2021/12/23 06:34:35;;;;;;;17.93;11.47;;;;;;;;;;5092317;28;20818;-77
2021/12/23 06:37:03;;;;;;;9.77;8.47;;;;;;;;;;5091792;28;20990;-77
2021/12/23 06:39:32;;;;;;;17.03;11.40;;;;;;;;;;5091761;28;20449;-77
2021/12/23 06:42:00;;;;;;;20.40;14.30;;;;;;;;;;5092126;28;20843;-77
2021/12/23 06:44:27;;;;;;;18.63;12.33;;;;;;;;;;5110807;28;20452;-80
2021/12/23 06:46:54;;;;;;;20.80;10.87;;;;;;;;;;5108043;28;20544;-77
2021/12/23 06:49:23;;;;;;;17.40;12.70;;;;;;;;;;5095986;28;20524;-80
2021/12/23 06:51:50;;;;;;;23.13;15.00;;;;;;;;;;5095415;28;20446;-81
2021/12/23 06:54:17;;;;;;;26.37;17.80;;;;;;;;;;5095703;28;20449;-80
2021/12/23 06:56:47;;;;;;;35.20;23.23;;;;;;;;;;5103963;28;20525;-79
2021/12/23 06:59:16;;;;;;;25.33;16.00;;;;;;;;;;5116032;28;20452;-80
2021/12/23 07:01:47;;;;;;;25.90;17.17;;;;;;;;;;5096005;28;20503;-81
2021/12/23 07:04:17;;;;;;;20.60;15.73;;;;;;;;;;5095308;28;20545;-82
2021/12/23 07:06:52;;;;;;;27.17;17.90;;;;;;;;;;5095417;28;21017;-80
2021/12/23 07:09:19;;;;;;;32.10;20.20;;;;;;;;;;5095354;28;20481;-80
2021/12/23 07:11:48;;;;;;;27.47;19.10;;;;;;;;;;5095076;28;20992;-80
2021/12/23 07:14:15;;;;;;;37.30;23.13;;;;;;;;;;5095294;28;20478;-80
2021/12/23 07:16:43;;;;;;;36.97;23.13;;;;;;;;;;5095591;28;20524;-79
2021/12/23 07:19:10;;;;;;;26.23;18.73;;;;;;;;;;5097942;28;20834;-80
2021/12/23 07:21:43;;;;;;;29.50;20.20;;;;;;;;;;5115570;28;20459;-80
2021/12/23 07:24:11;;;;;;;30.70;23.00;;;;;;;;;;5115976;28;20448;-82
2021/12/23 07:26:39;;;;;;;34.27;20.80;;;;;;;;;;5100335;28;20478;-83
2021/12/23 07:29:08;;;;;;;28.43;19.77;;;;;;;;;;5111053;28;20426;-82
2021/12/23 07:31:35;;;;;;;35.93;24.90;;;;;;;;;;5108129;28;20656;-83
2021/12/23 07:34:06;;;;;;;29.40;22.80;;;;;;;;;;5114010;28;20447;-81
2021/12/23 07:36:33;;;;;;;29.13;21.97;;;;;;;;;;5113875;28;20481;-81
2021/12/23 07:39:01;;;;;;;24.07;18.73;;;;;;;;;;5107076;28;20512;-83
2021/12/23 07:41:29;;;;;;;34.60;18.30;;;;;;;;;;5107444;28;20446;-81
2021/12/23 07:44:03;;;;;;;24.87;16.57;;;;;;;;;;5112357;28;20203;-80
2021/12/23 07:46:33;;;;;;;16.60;14.07;;;;;;;;;;5114317;28;20207;-81
2021/12/23 07:49:01;;;;;;;28.73;16.47;;;;;;;;;;5106056;28;20192;-79
2021/12/23 07:51:28;;;;;;;20.07;16.00;;;;;;;;;;5099288;28;20197;-80
2021/12/23 07:53:55;;;;;;;20.60;16.53;;;;;;;;;;5108736;28;20197;-79
2021/12/23 07:56:23;;;;;;;22.90;19.07;;;;;;;;;;5106312;28;20197;-81
2021/12/23 07:58:51;;;;;;;24.57;18.33;;;;;;;;;;5098647;28;20669;-80
2021/12/23 08:01:18;;;;;;;27.30;20.67;;;;;;;;;;5103919;28;20196;-82
2021/12/23 08:03:47;;;;;;;27.03;16.97;;;;;;;;;;5105405;28;20188;-82
2021/12/23 08:06:15;;;;;;;16.63;13.20;;;;;;;;;;5103462;28;20269;-82
2021/12/23 08:08:45;;;;;;;19.93;13.23;;;;;;;;;;5100009;28;20695;-82
2021/12/23 08:11:13;;;;;;;19.50;13.87;;;;;;;;;;5114623;28;20274;-81
2021/12/23 08:13:40;;;;;;;19.77;13.67;;;;;;;;;;5114995;28;20219;-82
2021/12/23 08:16:07;;;;;;;22.97;15.13;;;;;;;;;;5110132;28;20554;-82
2021/12/23 08:18:35;;;;;;;36.63;17.87;;;;;;;;;;5106925;28;20191;-82
2021/12/23 08:21:03;;;;;;;21.63;13.80;;;;;;;;;;5108483;28;20199;-82
2021/12/23 08:23:31;;;;;;;23.93;18.43;;;;;;;;;;5094106;28;20235;-82
2021/12/23 08:26:03;;;;;;;11.90;10.30;;;;;;;;;;5093651;28;20287;-81
2021/12/23 08:28:31;;;;;;;15.10;8.63;;;;;;;;;;5093893;28;20223;-82
2021/12/23 08:30:58;;;;;;;26.27;17.60;;;;;;;;;;5097811;28;20220;-82
2021/12/23 08:33:31;;;;;;;11.43;9.40;;;;;;;;;;5106956;28;20201;-82
2021/12/23 08:35:59;;;;;;;7.50;6.30;;;;;;;;;;5114025;28;20568;-82
2021/12/23 08:38:27;;;;;;;8.87;6.90;;;;;;;;;;5113932;28;20231;-82
2021/12/23 08:40:58;;;;;;;13.47;11.07;;;;;;;;;;5102893;28;20235;-83
2021/12/23 08:43:25;;;;;;;8.07;6.70;;;;;;;;;;5100883;28;20257;-83
2021/12/23 08:45:52;;;;;;;7.40;6.37;;;;;;;;;;5101304;28;20654;-83
2021/12/23 08:48:20;;;;;;;7.27;4.50;;;;;;;;;;5112818;28;20237;-83
2021/12/23 08:50:53;;;;;;;5.23;4.73;;;;;;;;;;5114313;28;20196;-83
2021/12/23 08:53:27;;;;;;;18.20;13.40;;;;;;;;;;5111702;28;20196;-85
2021/12/23 08:55:57;;;;;;;6.70;5.07;;;;;;;;;;5096895;28;20583;-83
2021/12/23 08:58:31;;;;;;;6.40;4.70;;;;;;;;;;5093100;28;20667;-84
2021/12/23 09:01:01;;;;;;;15.30;11.13;;;;;;;;;;5093414;28;20200;-84
2021/12/23 09:03:31;;;;;;;10.30;8.40;;;;;;;;;;5097976;28;20254;-83
2021/12/23 09:05:59;;;;;;;6.67;5.97;;;;;;;;;;5096900;28;20199;-82
2021/12/23 09:08:28;;;;;;;13.47;11.87;;;;;;;;;;5101730;28;20226;-83
2021/12/23 09:10:57;;;;;;;8.47;6.53;;;;;;;;;;5105944;28;20212;-82
2021/12/23 09:13:25;;;;;;;5.40;4.40;;;;;;;;;;5109954;28;20203;-83
2021/12/23 09:15:52;;;;;;;7.20;5.10;;;;;;;;;;5100342;28;20188;-82
2021/12/23 09:18:20;;;;;;;9.37;8.27;;;;;;;;;;5102006;28;20224;-82
2021/12/23 09:20:48;;;;;;;11.27;6.40;;;;;;;;;;5106471;28;20227;-82
2021/12/23 09:23:15;;;;;;;6.97;6.00;;;;;;;;;;5109515;28;20191;-82
2021/12/23 09:25:46;;;;;;;15.87;11.50;;;;;;;;;;5095306;28;20192;-82
2021/12/23 09:28:30;;;;;;;11.57;9.00;;;;;;;;;;5112931;28;20203;-82
2021/12/23 09:33:57;;;;;;;6.43;4.80;;;;;;;;;;5090554;28;20292;-83
2021/12/23 09:36:24;;;;;;;7.63;6.77;;;;;;;;;;5090767;28;20245;-83
2021/12/23 09:38:51;;;;;;;12.73;10.50;;;;;;;;;;5100467;28;20586;-83
2021/12/23 09:41:21;;;;;;;10.07;7.60;;;;;;;;;;5112888;28;20199;-83
2021/12/23 09:43:50;;;;;;;11.43;9.30;;;;;;;;;;5113595;28;20184;-83
2021/12/23 09:46:22;;;;;;;11.37;8.73;;;;;;;;;;5112995;28;20191;-82
2021/12/23 09:48:49;;;;;;;14.43;11.00;;;;;;;;;;5112977;28;20327;-83
2021/12/23 09:51:19;;;;;;;8.90;6.67;;;;;;;;;;5112970;28;20191;-82
2021/12/23 09:53:49;;;;;;;13.23;11.83;;;;;;;;;;5112874;28;20202;-83
2021/12/23 09:56:17;;;;;;;18.90;17.00;;;;;;;;;;5112815;28;20191;-82
2021/12/23 09:58:47;;;;;;;11.83;10.50;;;;;;;;;;5112699;28;20191;-83
2021/12/23 10:01:15;;;;;;;12.80;9.10;;;;;;;;;;5112864;28;20188;-83
2021/12/23 10:03:42;;;;;;;11.10;8.77;;;;;;;;;;5112719;28;20668;-82
2021/12/23 10:06:10;;;;;;;12.03;9.50;;;;;;;;;;5112668;28;20200;-82
2021/12/23 10:08:39;;;;;;;14.60;11.73;;;;;;;;;;5112342;28;20310;-83
2021/12/23 10:11:13;;;;;;;46.50;25.10;;;;;;;;;;5112998;28;20215;-83
2021/12/23 10:30:34;;;;;;;9.07;5.97;;;;;;;;;;5112471;28;20582;-83
2021/12/23 10:38:37;;;;;;;21.43;12.47;;;;;;;;;;5112521;28;20182;-83
2021/12/23 10:41:07;;;;;;;9.17;8.23;;;;;;;;;;5112305;28;20324;-83
2021/12/23 10:43:37;;;;;;;10.50;7.00;;;;;;;;;;5112797;28;20282;-83
2021/12/23 10:46:08;;;;;;;8.60;6.07;;;;;;;;;;5112565;28;20236;-83
2021/12/23 10:48:48;;;;;;;17.87;11.23;;;;;;;;;;5112210;28;20207;-83
2021/12/23 10:51:19;;;;;;;6.27;5.67;;;;;;;;;;5112116;28;20187;-83
2021/12/23 10:59:16;;;;;;;10.00;6.23;;;;;;;;;;5112541;28;20232;-83
2021/12/23 11:02:09;;;;;;;8.00;6.60;;;;;;;;;;5112122;28;20698;-83
2021/12/23 11:04:53;;;;;;;11.43;9.77;;;;;;;;;;5112186;28;20237;-83
2021/12/23 11:07:25;;;;;;;11.87;8.47;;;;;;;;;;5112414;28;20267;-83
2021/12/23 11:10:06;;;;;;;10.77;7.73;;;;;;;;;;5112018;28;20230;-83
2021/12/23 11:37:54;;;;;;;7.90;5.50;;;;;;;;;;5115808;28;20171;-83
2021/12/23 11:40:48;;;;;;;7.30;5.47;;;;;;;;;;5115466;28;20180;-83
2021/12/23 11:43:28;;;;;;;9.17;6.10;;;;;;;;;;5115376;28;20252;-83
2021/12/23 11:45:56;;;;;;;10.40;7.17;;;;;;;;;;5115651;28;20656;-83
2021/12/23 11:48:23;;;;;;;9.17;6.53;;;;;;;;;;5115358;28;20752;-83
2021/12/23 11:51:01;;;;;;;6.73;6.03;;;;;;;;;;5115276;28;20188;-83
2021/12/23 11:53:30;;;;;;;9.67;6.73;;;;;;;;;;5115307;28;20180;-83
2021/12/23 11:55:57;;;;;;;7.23;4.83;;;;;;;;;;5115467;28;20581;-83
2021/12/23 11:58:26;;;;;;;6.57;5.87;;;;;;;;;;5115066;28;20191;-83
2021/12/23 12:01:05;;;;;;;6.93;5.50;;;;;;;;;;5115372;28;20631;-83
2021/12/23 12:03:39;;;;;;;10.70;8.83;;;;;;;;;;5115053;28;20222;-84
2021/12/23 12:06:18;;;;;;;10.30;6.83;;;;;;;;;;5115171;27;20199;-84
2021/12/23 12:08:46;;;;;;;7.97;6.77;;;;;;;;;;5115141;28;20231;-83
2021/12/23 12:11:22;;;;;;;10.80;8.50;;;;;;;;;;5115158;28;20211;-84
2021/12/23 12:13:50;;;;;;;11.87;8.60;;;;;;;;;;5114733;28;20191;-84
2021/12/23 12:16:28;;;;;;;10.63;7.80;;;;;;;;;;5114903;28;20213;-84
2021/12/23 12:18:55;;;;;;;11.97;8.60;;;;;;;;;;5113234;28;20195;-84
2021/12/23 12:21:24;;;;;;;15.33;8.93;;;;;;;;;;5114449;28;20248;-84
2021/12/23 12:24:11;;;;;;;12.70;10.20;;;;;;;;;;5114646;28;20201;-84
2021/12/23 12:26:53;;;;;;;10.47;8.13;;;;;;;;;;5114837;28;20244;-84
2021/12/23 12:29:22;;;;;;;9.30;7.60;;;;;;;;;;5114495;28;20303;-84
2021/12/23 12:31:49;;;;;;;12.57;9.13;;;;;;;;;;5114935;28;20253;-84
2021/12/23 12:34:19;;;;;;;10.97;7.73;;;;;;;;;;5114410;28;20200;-83
2021/12/23 12:36:49;;;;;;;7.77;6.20;;;;;;;;;;5114602;28;20636;-84
2021/12/23 12:39:25;;;;;;;9.20;7.10;;;;;;;;;;5114551;28;20187;-84
2021/12/23 12:42:00;;;;;;;7.33;6.20;;;;;;;;;;5113494;28;20200;-84
2021/12/23 12:44:48;;;;;;;6.17;5.17;;;;;;;;;;5114301;27;20179;-84
2021/12/23 12:47:33;;;;;;;7.10;5.67;;;;;;;;;;5114257;28;20724;-84
2021/12/23 12:50:11;;;;;;;7.53;6.80;;;;;;;;;;5114138;28;20215;-84
2021/12/23 12:52:40;;;;;;;11.70;9.43;;;;;;;;;;5114257;28;20209;-84
2021/12/23 12:55:11;;;;;;;21.83;12.63;;;;;;;;;;5114043;28;20235;-84
2021/12/23 12:57:43;;;;;;;15.83;13.03;;;;;;;;;;5114303;28;20183;-84
2021/12/23 13:00:27;;;;;;;12.10;9.80;;;;;;;;;;5114010;28;20184;-84
2021/12/23 13:02:57;;;;;;;10.13;8.30;;;;;;;;;;5113879;28;20188;-83
2021/12/23 13:05:30;;;;;;;8.87;6.33;;;;;;;;;;5112218;28;20632;-84
2021/12/23 13:07:59;;;;;;;10.83;7.37;;;;;;;;;;5096956;28;20283;-83
2021/12/23 13:10:33;;;;;;;34.60;20.23;;;;;;;;;;5093291;28;20239;-84
2021/12/23 13:13:04;;;;;;;7.07;6.37;;;;;;;;;;5093855;28;20225;-83
2021/12/23 13:15:33;;;;;;;9.37;8.40;;;;;;;;;;5097358;28;20213;-83
2021/12/23 13:18:03;;;;;;;9.63;7.50;;;;;;;;;;5113772;28;20648;-83
2021/12/23 13:20:43;;;;;;;11.10;8.00;;;;;;;;;;5113372;28;20686;-83
2021/12/23 13:23:14;;;;;;;13.23;10.40;;;;;;;;;;5113709;28;20179;-83
2021/12/23 13:25:57;;;;;;;12.07;9.03;;;;;;;;;;5113421;28;20215;-83
2021/12/23 13:28:28;;;;;;;8.83;7.80;;;;;;;;;;5113403;28;20207;-83
2021/12/23 13:30:56;;;;;;;10.90;8.23;;;;;;;;;;5113537;28;20184;-85
2021/12/23 13:33:24;;;;;;;11.50;9.33;;;;;;;;;;5112406;28;20200;-85
2021/12/23 13:35:51;;;;;;;17.17;12.60;;;;;;;;;;5098720;28;20638;-84
2021/12/23 13:38:41;;;;;;;19.30;12.83;;;;;;;;;;5092769;28;20249;-83
2021/12/23 13:41:15;;;;;;;23.83;16.17;;;;;;;;;;5093025;28;20195;-83
2021/12/23 13:43:42;;;;;;;18.57;12.70;;;;;;;;;;5098228;28;20291;-83
2021/12/23 13:46:10;;;;;;;14.67;11.47;;;;;;;;;;5113315;28;20221;-83
2021/12/23 13:48:55;;;;;;;15.63;12.13;;;;;;;;;;5112877;28;20219;-83
2021/12/23 13:51:24;;;;;;;21.30;14.47;;;;;;;;;;5112923;28;20567;-83
2021/12/23 13:54:05;;;;;;;24.50;18.60;;;;;;;;;;5113130;28;20217;-84
2021/12/23 13:56:35;;;;;;;22.23;16.43;;;;;;;;;;5112839;28;20184;-83
2021/12/23 13:59:10;;;;;;;34.00;22.07;;;;;;;;;;5112795;28;20190;-83
2021/12/23 14:01:58;;;;;;;47.47;28.07;;;;;;;;;;5104506;28;20295;-83
2021/12/23 14:04:34;;;;;;;42.87;25.20;;;;;;;;;;5106534;28;20243;-83
2021/12/23 14:07:01;;;;;;;22.20;18.23;;;;;;;;;;5099113;28;20243;-83
2021/12/23 14:09:33;;;;;;;18.93;13.97;;;;;;;;;;5092130;28;20236;-83
2021/12/23 14:12:02;;;;;;;20.63;16.87;;;;;;;;;;5092176;28;20235;-83
2021/12/23 14:14:29;;;;;;;30.80;23.93;;;;;;;;;;5092122;28;20735;-83
2021/12/23 14:16:57;;;;;;;21.73;18.03;;;;;;;;;;5092109;28;20253;-83
2021/12/23 14:19:28;;;;;;;25.13;20.67;;;;;;;;;;5092280;28;20267;-83
2021/12/23 14:24:43;;;;;;;29.00;22.13;;;;;;;;;;5092555;28;20703;-83
2021/12/23 14:27:12;;;;;;;44.87;35.63;;;;;;;;;;5092288;28;20247;-83
2021/12/23 14:29:40;;;;;;;26.00;21.87;;;;;;;;;;5092190;28;20224;-83
2021/12/23 14:32:08;;;;;;;66.07;47.27;;;;;;;;;;5092194;28;20741;-82
2021/12/23 14:34:35;;;;;;;24.20;18.97;;;;;;;;;;5091951;28;20200;-83
2021/12/23 14:37:07;;;;;;;22.00;18.50;;;;;;;;;;5091998;28;20283;-82
2021/12/23 14:39:38;;;;;;;22.53;16.43;;;;;;;;;;5098991;28;20191;-83
2021/12/23 14:42:14;;;;;;;26.80;22.63;;;;;;;;;;5104909;28;20231;-83
2021/12/23 14:44:42;;;;;;;70.00;46.27;;;;;;;;;;5112561;28;20575;-83
2021/12/23 14:47:15;;;;;;;34.17;27.87;;;;;;;;;;5112177;28;20195;-82
2021/12/23 14:50:00;;;;;;;41.80;30.23;;;;;;;;;;5112038;28;20700;-83
2021/12/23 14:52:28;;;;;;;49.57;32.27;;;;;;;;;;5112248;28;20183;-83
2021/12/23 14:54:58;;;;;;;32.73;23.90;;;;;;;;;;5104709;28;20286;-82
2021/12/23 14:57:30;;;;;;;47.37;31.13;;;;;;;;;;5112136;28;20252;-86
2021/12/23 15:00:00;;;;;;;58.40;30.27;;;;;;;;;;5112005;28;20734;-82
2021/12/23 15:02:28;;;;;;;57.40;32.70;;;;;;;;;;5112065;28;20235;-82
2021/12/23 15:05:05;;;;;;;230.47;182.87;;;;;;;;;;5112409;28;20195;-82
2021/12/23 15:07:52;;;;;;;74.03;53.13;;;;;;;;;;5116042;28;20663;-82
2021/12/23 15:10:41;;;;;;;46.90;31.37;;;;;;;;;;5115595;28;20616;-82
2021/12/23 15:13:22;;;;;;;30.37;20.43;;;;;;;;;;5102402;28;20232;-83
2021/12/23 15:15:56;;;;;;;27.93;19.60;;;;;;;;;;5111964;28;20195;-83
2021/12/23 15:18:32;;;;;;;20.03;16.03;;;;;;;;;;5115873;28;20198;-82
2021/12/23 15:21:00;;;;;;;17.50;13.87;;;;;;;;;;5116022;28;20183;-83
2021/12/23 15:23:45;;;;;;;61.20;55.53;;;;;;;;;;5115946;28;20196;-82
2021/12/23 15:26:28;;;;;;;25.80;20.07;;;;;;;;;;5111400;28;20223;-83
2021/12/23 15:29:12;;;;;;;168.40;150.23;;;;;;;;;;5100269;28;20212;-82
2021/12/23 15:31:40;;;;;;;50.67;45.63;;;;;;;;;;5107878;28;20199;-82
2021/12/23 15:34:09;;;;;;;23.43;17.80;;;;;;;;;;5115439;28;20207;-82
2021/12/23 15:36:38;;;;;;;69.63;62.17;;;;;;;;;;5102575;28;20208;-83
2021/12/23 15:39:16;;;;;;;41.30;35.17;;;;;;;;;;5095395;28;20196;-82
2021/12/23 15:41:43;;;;;;;35.37;30.13;;;;;;;;;;5095229;28;20188;-82
2021/12/23 15:44:12;;;;;;;27.87;23.77;;;;;;;;;;5094887;28;20693;-82
2021/12/23 15:46:39;;;;;;;30.13;27.07;;;;;;;;;;5094791;28;20196;-82
2021/12/23 15:49:06;;;;;;;26.27;23.17;;;;;;;;;;5095094;28;20238;-82